sensor_id;sensor_type;location;lat;lon;timestamp;P1;durP1;ratioP1;P2;durP2;ratioP2
62509;SDS011;48558;48.242;11.654;2023-03-03T00:04:09;30.38;;;14.00;;
62509;SDS011;48558;48.242;11.654;2023-03-03T00:08:22;27.90;;;14.05;;
62509;SDS011;48558;48.242;11.654;2023-03-03T00:12:34;26.83;;;12.90;;
62509;SDS011;48558;48.242;11.654;2023-03-03T00:16:59;30.50;;;13.05;;
62509;SDS011;48558;48.242;11.654;2023-03-03T00:21:23;35.58;;;14.70;;
62509;SDS011;48558;48.242;11.654;2023-03-03T00:25:42;24.23;;;11.93;;
62509;SDS011;48558;48.242;11.654;2023-03-03T00:29:57;45.63;;;17.48;;
62509;SDS011;48558;48.242;11.654;2023-03-03T00:42:48;25.52;;;12.20;;
62509;SDS011;48558;48.242;11.654;2023-03-03T00:51:41;26.52;;;13.30;;
62509;SDS011;48558;48.242;11.654;2023-03-03T00:55:55;28.60;;;14.52;;
62509;SDS011;48558;48.242;11.654;2023-03-03T01:00:09;34.08;;;14.40;;
62509;SDS011;48558;48.242;11.654;2023-03-03T01:04:27;28.40;;;13.77;;
62509;SDS011;48558;48.242;11.654;2023-03-03T01:08:39;24.02;;;12.48;;
62509;SDS011;48558;48.242;11.654;2023-03-03T01:12:52;27.65;;;13.77;;
62509;SDS011;48558;48.242;11.654;2023-03-03T01:17:06;31.73;;;13.75;;
62509;SDS011;48558;48.242;11.654;2023-03-03T01:21:18;33.30;;;14.07;;
62509;SDS011;48558;48.242;11.654;2023-03-03T01:25:31;27.77;;;12.85;;
62509;SDS011;48558;48.242;11.654;2023-03-03T01:29:44;24.38;;;13.10;;
62509;SDS011;48558;48.242;11.654;2023-03-03T01:34:06;31.33;;;14.68;;
62509;SDS011;48558;48.242;11.654;2023-03-03T01:38:18;29.10;;;14.60;;
62509;SDS011;48558;48.242;11.654;2023-03-03T01:42:31;29.83;;;13.35;;
62509;SDS011;48558;48.242;11.654;2023-03-03T01:51:25;33.40;;;14.68;;
62509;SDS011;48558;48.242;11.654;2023-03-03T01:55:45;30.40;;;14.85;;
62509;SDS011;48558;48.242;11.654;2023-03-03T02:00:00;30.30;;;13.13;;
62509;SDS011;48558;48.242;11.654;2023-03-03T02:04:16;32.85;;;13.07;;
62509;SDS011;48558;48.242;11.654;2023-03-03T02:08:35;27.38;;;13.02;;
62509;SDS011;48558;48.242;11.654;2023-03-03T02:13:15;35.40;;;16.30;;
62509;SDS011;48558;48.242;11.654;2023-03-03T02:17:37;35.53;;;15.15;;
62509;SDS011;48558;48.242;11.654;2023-03-03T02:22:00;28.58;;;13.93;;
62509;SDS011;48558;48.242;11.654;2023-03-03T02:26:17;30.33;;;13.60;;
62509;SDS011;48558;48.242;11.654;2023-03-03T02:34:55;24.90;;;12.77;;
62509;SDS011;48558;48.242;11.654;2023-03-03T02:39:09;34.92;;;14.68;;
62509;SDS011;48558;48.242;11.654;2023-03-03T02:43:55;21.67;;;12.43;;
62509;SDS011;48558;48.242;11.654;2023-03-03T02:48:24;24.95;;;12.55;;
62509;SDS011;48558;48.242;11.654;2023-03-03T02:52:36;28.52;;;13.45;;
62509;SDS011;48558;48.242;11.654;2023-03-03T02:56:49;30.98;;;13.65;;
62509;SDS011;48558;48.242;11.654;2023-03-03T03:01:01;32.25;;;14.18;;
62509;SDS011;48558;48.242;11.654;2023-03-03T03:05:15;27.08;;;13.18;;
62509;SDS011;48558;48.242;11.654;2023-03-03T03:09:27;31.00;;;14.40;;
62509;SDS011;48558;48.242;11.654;2023-03-03T03:13:39;30.13;;;14.77;;
62509;SDS011;48558;48.242;11.654;2023-03-03T03:17:52;34.55;;;14.82;;
62509;SDS011;48558;48.242;11.654;2023-03-03T03:22:04;38.17;;;14.88;;
62509;SDS011;48558;48.242;11.654;2023-03-03T03:26:17;34.25;;;14.13;;
62509;SDS011;48558;48.242;11.654;2023-03-03T03:30:31;30.83;;;14.48;;
62509;SDS011;48558;48.242;11.654;2023-03-03T03:34:44;28.80;;;13.52;;
62509;SDS011;48558;48.242;11.654;2023-03-03T03:38:56;31.15;;;14.68;;
62509;SDS011;48558;48.242;11.654;2023-03-03T03:43:09;33.70;;;14.20;;
62509;SDS011;48558;48.242;11.654;2023-03-03T03:47:21;32.80;;;14.18;;
62509;SDS011;48558;48.242;11.654;2023-03-03T03:51:35;28.80;;;13.73;;
62509;SDS011;48558;48.242;11.654;2023-03-03T03:55:52;34.40;;;14.85;;
62509;SDS011;48558;48.242;11.654;2023-03-03T04:00:05;30.73;;;14.35;;
62509;SDS011;48558;48.242;11.654;2023-03-03T04:04:20;37.42;;;16.02;;
62509;SDS011;48558;48.242;11.654;2023-03-03T04:08:32;35.65;;;14.65;;
62509;SDS011;48558;48.242;11.654;2023-03-03T04:12:55;28.63;;;13.95;;
62509;SDS011;48558;48.242;11.654;2023-03-03T04:17:12;29.98;;;15.82;;
62509;SDS011;48558;48.242;11.654;2023-03-03T04:21:33;34.38;;;15.45;;
62509;SDS011;48558;48.242;11.654;2023-03-03T04:25:46;35.35;;;14.70;;
62509;SDS011;48558;48.242;11.654;2023-03-03T04:30:00;39.95;;;16.02;;
62509;SDS011;48558;48.242;11.654;2023-03-03T04:34:14;31.27;;;14.75;;
62509;SDS011;48558;48.242;11.654;2023-03-03T04:38:27;37.50;;;16.40;;
62509;SDS011;48558;48.242;11.654;2023-03-03T04:42:39;37.85;;;16.55;;
62509;SDS011;48558;48.242;11.654;2023-03-03T04:46:52;43.35;;;17.13;;
62509;SDS011;48558;48.242;11.654;2023-03-03T04:51:04;28.05;;;14.00;;
62509;SDS011;48558;48.242;11.654;2023-03-03T04:55:17;33.38;;;14.82;;
62509;SDS011;48558;48.242;11.654;2023-03-03T04:59:29;32.25;;;14.88;;
62509;SDS011;48558;48.242;11.654;2023-03-03T05:03:42;30.52;;;14.13;;
62509;SDS011;48558;48.242;11.654;2023-03-03T05:07:54;43.00;;;17.88;;
62509;SDS011;48558;48.242;11.654;2023-03-03T05:12:07;32.30;;;16.17;;
62509;SDS011;48558;48.242;11.654;2023-03-03T05:16:19;40.83;;;17.45;;
62509;SDS011;48558;48.242;11.654;2023-03-03T05:20:32;32.15;;;15.55;;
62509;SDS011;48558;48.242;11.654;2023-03-03T05:24:45;38.92;;;16.17;;
62509;SDS011;48558;48.242;11.654;2023-03-03T05:29:00;36.83;;;16.70;;
62509;SDS011;48558;48.242;11.654;2023-03-03T05:33:13;29.85;;;14.85;;
62509;SDS011;48558;48.242;11.654;2023-03-03T05:37:27;29.60;;;14.25;;
62509;SDS011;48558;48.242;11.654;2023-03-03T05:41:40;49.38;;;19.20;;
62509;SDS011;48558;48.242;11.654;2023-03-03T05:45:53;38.83;;;16.85;;
62509;SDS011;48558;48.242;11.654;2023-03-03T05:50:17;42.72;;;18.45;;
62509;SDS011;48558;48.242;11.654;2023-03-03T05:54:41;32.75;;;14.27;;
62509;SDS011;48558;48.242;11.654;2023-03-03T05:58:54;38.53;;;16.65;;
62509;SDS011;48558;48.242;11.654;2023-03-03T06:03:07;49.65;;;20.98;;
62509;SDS011;48558;48.242;11.654;2023-03-03T06:07:19;37.97;;;16.48;;
62509;SDS011;48558;48.242;11.654;2023-03-03T06:11:32;30.13;;;14.35;;
62509;SDS011;48558;48.242;11.654;2023-03-03T06:15:45;34.38;;;15.85;;
62509;SDS011;48558;48.242;11.654;2023-03-03T06:19:57;31.90;;;15.40;;
62509;SDS011;48558;48.242;11.654;2023-03-03T06:24:10;30.02;;;14.05;;
62509;SDS011;48558;48.242;11.654;2023-03-03T06:28:25;29.15;;;12.77;;
62509;SDS011;48558;48.242;11.654;2023-03-03T06:32:38;43.30;;;19.17;;
62509;SDS011;48558;48.242;11.654;2023-03-03T06:36:51;38.88;;;15.52;;
62509;SDS011;48558;48.242;11.654;2023-03-03T06:41:03;37.80;;;16.50;;
62509;SDS011;48558;48.242;11.654;2023-03-03T06:45:18;37.75;;;17.85;;
62509;SDS011;48558;48.242;11.654;2023-03-03T06:49:31;37.15;;;15.30;;
62509;SDS011;48558;48.242;11.654;2023-03-03T06:53:44;46.60;;;19.67;;
62509;SDS011;48558;48.242;11.654;2023-03-03T06:57:56;39.17;;;18.27;;
62509;SDS011;48558;48.242;11.654;2023-03-03T07:02:15;39.45;;;17.15;;
62509;SDS011;48558;48.242;11.654;2023-03-03T07:06:29;63.70;;;28.50;;
62509;SDS011;48558;48.242;11.654;2023-03-03T07:10:44;37.83;;;17.50;;
62509;SDS011;48558;48.242;11.654;2023-03-03T07:15:10;30.42;;;15.25;;
62509;SDS011;48558;48.242;11.654;2023-03-03T07:19:30;39.60;;;16.42;;
62509;SDS011;48558;48.242;11.654;2023-03-03T07:23:49;37.42;;;17.13;;
62509;SDS011;48558;48.242;11.654;2023-03-03T07:28:10;32.67;;;16.48;;
62509;SDS011;48558;48.242;11.654;2023-03-03T07:32:40;57.92;;;26.73;;
62509;SDS011;48558;48.242;11.654;2023-03-03T07:37:00;35.22;;;16.92;;
62509;SDS011;48558;48.242;11.654;2023-03-03T07:41:17;49.60;;;24.30;;
62509;SDS011;48558;48.242;11.654;2023-03-03T07:45:33;46.10;;;19.05;;
62509;SDS011;48558;48.242;11.654;2023-03-03T07:49:59;37.45;;;15.88;;
62509;SDS011;48558;48.242;11.654;2023-03-03T07:54:31;41.92;;;18.33;;
62509;SDS011;48558;48.242;11.654;2023-03-03T07:58:59;40.72;;;18.02;;
62509;SDS011;48558;48.242;11.654;2023-03-03T08:03:28;42.03;;;16.60;;
62509;SDS011;48558;48.242;11.654;2023-03-03T08:07:42;36.05;;;16.80;;
62509;SDS011;48558;48.242;11.654;2023-03-03T08:16:46;34.33;;;16.42;;
62509;SDS011;48558;48.242;11.654;2023-03-03T08:21:12;46.85;;;24.00;;
62509;SDS011;48558;48.242;11.654;2023-03-03T08:25:35;37.95;;;17.90;;
62509;SDS011;48558;48.242;11.654;2023-03-03T08:29:48;30.67;;;16.70;;
62509;SDS011;48558;48.242;11.654;2023-03-03T08:34:01;36.15;;;17.85;;
62509;SDS011;48558;48.242;11.654;2023-03-03T08:38:15;39.70;;;18.55;;
62509;SDS011;48558;48.242;11.654;2023-03-03T08:42:30;49.40;;;22.63;;
62509;SDS011;48558;48.242;11.654;2023-03-03T08:46:43;35.45;;;17.58;;
62509;SDS011;48558;48.242;11.654;2023-03-03T08:50:55;47.28;;;19.70;;
62509;SDS011;48558;48.242;11.654;2023-03-03T08:55:09;35.22;;;18.75;;
62509;SDS011;48558;48.242;11.654;2023-03-03T08:59:22;40.50;;;18.20;;
62509;SDS011;48558;48.242;11.654;2023-03-03T09:03:45;40.00;;;18.45;;
62509;SDS011;48558;48.242;11.654;2023-03-03T09:07:57;35.88;;;18.15;;
62509;SDS011;48558;48.242;11.654;2023-03-03T09:12:13;43.20;;;20.15;;
62509;SDS011;48558;48.242;11.654;2023-03-03T09:16:57;36.63;;;18.25;;
62509;SDS011;48558;48.242;11.654;2023-03-03T09:25:53;43.42;;;22.60;;
62509;SDS011;48558;48.242;11.654;2023-03-03T09:34:38;40.03;;;21.10;;
62509;SDS011;48558;48.242;11.654;2023-03-03T09:38:54;39.58;;;18.60;;
62509;SDS011;48558;48.242;11.654;2023-03-03T09:43:23;55.17;;;27.05;;
62509;SDS011;48558;48.242;11.654;2023-03-03T09:52:55;38.22;;;19.95;;
62509;SDS011;48558;48.242;11.654;2023-03-03T10:54:14;35.85;;;18.75;;
62509;SDS011;48558;48.242;11.654;2023-03-03T11:08:00;35.75;;;19.17;;
62509;SDS011;48558;48.242;11.654;2023-03-03T11:16:55;48.70;;;23.45;;
62509;SDS011;48558;48.242;11.654;2023-03-03T11:21:37;34.83;;;19.45;;
62509;SDS011;48558;48.242;11.654;2023-03-03T11:41:00;32.70;;;19.42;;
62509;SDS011;48558;48.242;11.654;2023-03-03T11:45:25;38.95;;;20.95;;
62509;SDS011;48558;48.242;11.654;2023-03-03T11:50:09;32.28;;;19.27;;
62509;SDS011;48558;48.242;11.654;2023-03-03T12:03:44;40.13;;;21.48;;
62509;SDS011;48558;48.242;11.654;2023-03-03T12:13:10;32.58;;;19.20;;
62509;SDS011;48558;48.242;11.654;2023-03-03T12:31:13;37.10;;;20.08;;
62509;SDS011;48558;48.242;11.654;2023-03-03T12:35:41;36.55;;;21.45;;
62509;SDS011;48558;48.242;11.654;2023-03-03T12:40:24;34.33;;;20.73;;
62509;SDS011;48558;48.242;11.654;2023-03-03T12:44:44;36.88;;;20.77;;
62509;SDS011;48558;48.242;11.654;2023-03-03T12:49:24;41.75;;;23.92;;
62509;SDS011;48558;48.242;11.654;2023-03-03T13:08:29;33.50;;;18.25;;
62509;SDS011;48558;48.242;11.654;2023-03-03T13:21:53;38.05;;;20.67;;
62509;SDS011;48558;48.242;11.654;2023-03-03T13:30:49;36.95;;;19.88;;
62509;SDS011;48558;48.242;11.654;2023-03-03T13:39:52;40.83;;;22.40;;
62509;SDS011;48558;48.242;11.654;2023-03-03T13:44:11;31.65;;;20.15;;
62509;SDS011;48558;48.242;11.654;2023-03-03T13:58:16;38.30;;;20.30;;
62509;SDS011;48558;48.242;11.654;2023-03-03T14:07:31;37.70;;;21.30;;
62509;SDS011;48558;48.242;11.654;2023-03-03T14:11:58;35.88;;;20.85;;
62509;SDS011;48558;48.242;11.654;2023-03-03T14:20:59;33.55;;;19.40;;
62509;SDS011;48558;48.242;11.654;2023-03-03T14:25:20;29.92;;;18.83;;
62509;SDS011;48558;48.242;11.654;2023-03-03T14:29:33;31.05;;;19.35;;
62509;SDS011;48558;48.242;11.654;2023-03-03T14:51:23;33.35;;;20.25;;
62509;SDS011;48558;48.242;11.654;2023-03-03T14:55:42;31.75;;;20.17;;
62509;SDS011;48558;48.242;11.654;2023-03-03T14:59:58;32.92;;;20.17;;
62509;SDS011;48558;48.242;11.654;2023-03-03T15:04:23;35.78;;;21.25;;
62509;SDS011;48558;48.242;11.654;2023-03-03T15:08:48;33.80;;;19.10;;
62509;SDS011;48558;48.242;11.654;2023-03-03T15:17:36;39.33;;;20.65;;
62509;SDS011;48558;48.242;11.654;2023-03-03T15:26:52;37.20;;;19.63;;
62509;SDS011;48558;48.242;11.654;2023-03-03T15:41:01;37.03;;;18.50;;
62509;SDS011;48558;48.242;11.654;2023-03-03T15:55:05;34.28;;;18.45;;
62509;SDS011;48558;48.242;11.654;2023-03-03T15:59:43;31.83;;;18.50;;
62509;SDS011;48558;48.242;11.654;2023-03-03T16:04:30;36.97;;;18.65;;
62509;SDS011;48558;48.242;11.654;2023-03-03T16:09:02;31.92;;;17.35;;
62509;SDS011;48558;48.242;11.654;2023-03-03T16:13:59;32.83;;;18.05;;
62509;SDS011;48558;48.242;11.654;2023-03-03T16:18:36;37.65;;;19.02;;
62509;SDS011;48558;48.242;11.654;2023-03-03T16:32:05;39.65;;;17.48;;
62509;SDS011;48558;48.242;11.654;2023-03-03T16:40:55;34.15;;;18.90;;
62509;SDS011;48558;48.242;11.654;2023-03-03T16:49:44;38.03;;;19.23;;
62509;SDS011;48558;48.242;11.654;2023-03-03T16:54:34;38.88;;;20.15;;
62509;SDS011;48558;48.242;11.654;2023-03-03T17:03:46;32.85;;;18.33;;
62509;SDS011;48558;48.242;11.654;2023-03-03T17:27:39;31.70;;;16.73;;
62509;SDS011;48558;48.242;11.654;2023-03-03T17:41:47;37.85;;;18.73;;
62509;SDS011;48558;48.242;11.654;2023-03-03T17:46:21;35.45;;;19.27;;
62509;SDS011;48558;48.242;11.654;2023-03-03T17:56:17;34.95;;;18.65;;
62509;SDS011;48558;48.242;11.654;2023-03-03T18:10:07;30.13;;;17.17;;
62509;SDS011;48558;48.242;11.654;2023-03-03T18:14:52;40.22;;;19.67;;
62509;SDS011;48558;48.242;11.654;2023-03-03T18:29:04;35.83;;;17.75;;
62509;SDS011;48558;48.242;11.654;2023-03-03T18:33:43;30.92;;;16.67;;
62509;SDS011;48558;48.242;11.654;2023-03-03T18:46:52;35.90;;;17.20;;
62509;SDS011;48558;48.242;11.654;2023-03-03T18:51:06;35.58;;;18.13;;
62509;SDS011;48558;48.242;11.654;2023-03-03T18:55:20;37.10;;;17.50;;
62509;SDS011;48558;48.242;11.654;2023-03-03T18:59:38;35.80;;;18.73;;
62509;SDS011;48558;48.242;11.654;2023-03-03T19:08:52;44.72;;;19.77;;
62509;SDS011;48558;48.242;11.654;2023-03-03T19:12:56;38.42;;;18.77;;
62509;SDS011;48558;48.242;11.654;2023-03-03T19:21:33;37.38;;;18.00;;
62509;SDS011;48558;48.242;11.654;2023-03-03T19:44:36;39.70;;;19.25;;
62509;SDS011;48558;48.242;11.654;2023-03-03T20:12:55;36.53;;;17.48;;
62509;SDS011;48558;48.242;11.654;2023-03-03T20:21:52;43.85;;;19.70;;
62509;SDS011;48558;48.242;11.654;2023-03-03T20:35:42;38.60;;;19.70;;
62509;SDS011;48558;48.242;11.654;2023-03-03T20:40:39;42.55;;;19.70;;
62509;SDS011;48558;48.242;11.654;2023-03-03T20:59:08;43.22;;;21.33;;
62509;SDS011;48558;48.242;11.654;2023-03-03T21:03:37;36.67;;;18.83;;
62509;SDS011;48558;48.242;11.654;2023-03-03T21:07:57;41.20;;;19.23;;
62509;SDS011;48558;48.242;11.654;2023-03-03T21:12:26;44.47;;;19.60;;
62509;SDS011;48558;48.242;11.654;2023-03-03T21:16:41;38.58;;;19.50;;
62509;SDS011;48558;48.242;11.654;2023-03-03T21:20:54;40.67;;;21.23;;
62509;SDS011;48558;48.242;11.654;2023-03-03T21:25:10;53.08;;;27.38;;
62509;SDS011;48558;48.242;11.654;2023-03-03T21:30:11;39.22;;;19.98;;
62509;SDS011;48558;48.242;11.654;2023-03-03T21:34:29;56.35;;;26.58;;
62509;SDS011;48558;48.242;11.654;2023-03-03T21:38:52;49.75;;;21.60;;
62509;SDS011;48558;48.242;11.654;2023-03-03T21:43:05;43.38;;;20.95;;
62509;SDS011;48558;48.242;11.654;2023-03-03T21:47:27;49.08;;;21.73;;
62509;SDS011;48558;48.242;11.654;2023-03-03T21:51:40;41.47;;;21.02;;
62509;SDS011;48558;48.242;11.654;2023-03-03T21:55:52;56.35;;;25.13;;
62509;SDS011;48558;48.242;11.654;2023-03-03T22:00:06;41.80;;;20.05;;
62509;SDS011;48558;48.242;11.654;2023-03-03T22:04:20;36.10;;;19.05;;
62509;SDS011;48558;48.242;11.654;2023-03-03T22:08:32;42.35;;;21.25;;
62509;SDS011;48558;48.242;11.654;2023-03-03T22:12:55;42.25;;;19.23;;
62509;SDS011;48558;48.242;11.654;2023-03-03T22:17:07;46.53;;;21.40;;
62509;SDS011;48558;48.242;11.654;2023-03-03T22:21:21;44.03;;;20.90;;
62509;SDS011;48558;48.242;11.654;2023-03-03T22:25:34;41.72;;;19.45;;
62509;SDS011;48558;48.242;11.654;2023-03-03T22:29:47;50.55;;;22.83;;
62509;SDS011;48558;48.242;11.654;2023-03-03T22:33:59;44.47;;;21.80;;
62509;SDS011;48558;48.242;11.654;2023-03-03T22:38:12;48.67;;;21.88;;
62509;SDS011;48558;48.242;11.654;2023-03-03T22:42:26;48.50;;;21.02;;
62509;SDS011;48558;48.242;11.654;2023-03-03T22:46:38;37.42;;;18.92;;
62509;SDS011;48558;48.242;11.654;2023-03-03T22:50:51;40.38;;;18.73;;
62509;SDS011;48558;48.242;11.654;2023-03-03T22:55:10;40.97;;;18.70;;
62509;SDS011;48558;48.242;11.654;2023-03-03T22:59:22;45.45;;;19.02;;
62509;SDS011;48558;48.242;11.654;2023-03-03T23:03:35;41.08;;;19.23;;
62509;SDS011;48558;48.242;11.654;2023-03-03T23:07:48;41.80;;;19.08;;
62509;SDS011;48558;48.242;11.654;2023-03-03T23:12:00;43.25;;;19.05;;
62509;SDS011;48558;48.242;11.654;2023-03-03T23:16:13;40.60;;;19.15;;
62509;SDS011;48558;48.242;11.654;2023-03-03T23:20:26;41.10;;;19.17;;
62509;SDS011;48558;48.242;11.654;2023-03-03T23:24:40;40.92;;;18.73;;
62509;SDS011;48558;48.242;11.654;2023-03-03T23:29:04;42.38;;;19.48;;
62509;SDS011;48558;48.242;11.654;2023-03-03T23:33:16;38.42;;;17.58;;
62509;SDS011;48558;48.242;11.654;2023-03-03T23:37:29;45.10;;;20.20;;
62509;SDS011;48558;48.242;11.654;2023-03-03T23:41:42;37.78;;;19.05;;
62509;SDS011;48558;48.242;11.654;2023-03-03T23:45:56;39.08;;;17.35;;
62509;SDS011;48558;48.242;11.654;2023-03-03T23:50:09;40.05;;;19.83;;
62509;SDS011;48558;48.242;11.654;2023-03-03T23:54:23;45.15;;;20.27;;
62509;SDS011;48558;48.242;11.654;2023-03-03T23:58:35;40.35;;;19.92;;
